createdAt,value
2022-12-04T00:01:43.443Z,74.53
2022-12-04T00:04:11.193Z,80.23
2022-12-04T00:06:38.346Z,80.97
2022-12-04T00:09:09.766Z,81.53
2022-12-04T00:12:24.935Z,72.43
2022-12-04T00:15:28.646Z,79.23
2022-12-04T00:19:13.514Z,80.03
2022-12-04T00:21:55.574Z,83.90
2022-12-04T00:24:22.974Z,87.67
2022-12-04T00:26:57.271Z,83.50
2022-12-04T00:29:30.545Z,78.67
2022-12-04T00:32:15.207Z,71.30
2022-12-04T00:34:57.822Z,71.47
2022-12-04T00:37:31.421Z,73.07
2022-12-04T00:39:58.461Z,73.10
2022-12-04T00:42:45.275Z,64.37
2022-12-04T00:45:15.291Z,75.03
2022-12-04T00:47:54.457Z,74.40
2022-12-04T00:50:22.231Z,68.80
2022-12-04T00:53:17.097Z,71.50
2022-12-04T00:59:18.507Z,75.20
2022-12-04T01:02:29.628Z,73.90
2022-12-04T01:04:56.800Z,66.73
2022-12-04T01:07:50.725Z,72.37
2022-12-04T01:13:51.902Z,71.83
2022-12-04T01:16:34.756Z,71.43
2022-12-04T01:19:25.238Z,64.60
2022-12-04T01:22:05.410Z,65.43
2022-12-04T01:24:32.566Z,65.60
2022-12-04T01:27:00.220Z,68.13
2022-12-04T01:29:27.850Z,62.73
2022-12-04T01:32:03.727Z,65.70
2022-12-04T01:34:31.416Z,59.87
2022-12-04T01:36:58.976Z,66.37
2022-12-04T01:39:26.227Z,65.17
2022-12-04T01:41:53.221Z,67.00
2022-12-04T01:45:03.377Z,62.00
2022-12-04T01:47:30.309Z,61.87
2022-12-04T01:50:13.507Z,65.40
2022-12-04T01:52:46.231Z,69.27
2022-12-04T01:55:16.599Z,66.70
2022-12-04T01:57:49.432Z,73.40
2022-12-04T02:00:17.612Z,75.87
2022-12-04T02:02:49.065Z,67.77
2022-12-04T02:05:28.778Z,74.10
2022-12-04T02:08:04.902Z,69.73
2022-12-04T02:10:46.311Z,66.87
2022-12-04T02:13:51.759Z,62.47
2022-12-04T02:16:47.118Z,63.87
2022-12-04T02:19:50.703Z,68.67
2022-12-04T02:22:57.488Z,61.27
2022-12-04T02:26:08.879Z,64.83
2022-12-04T02:29:04.749Z,60.77
2022-12-04T02:31:43.537Z,61.57
2022-12-04T02:34:51.195Z,69.97
2022-12-04T02:37:40.901Z,59.43
2022-12-04T02:40:49.394Z,69.23
2022-12-04T02:44:03.357Z,64.30
2022-12-04T02:47:00.872Z,63.10
2022-12-04T02:50:07.106Z,63.27
2022-12-04T02:53:01.164Z,69.53
2022-12-04T02:55:57.180Z,63.70
2022-12-04T02:59:24.376Z,69.03
2022-12-04T03:03:04.064Z,67.63
2022-12-04T03:05:44.045Z,66.43
2022-12-04T03:08:44.171Z,71.93
2022-12-04T03:11:47.480Z,70.30
2022-12-04T03:14:48.505Z,63.33
2022-12-04T03:17:42.146Z,62.97
2022-12-04T03:20:28.770Z,62.20
2022-12-04T03:23:12.972Z,63.87
2022-12-04T03:26:36.751Z,61.03
2022-12-04T03:31:16.764Z,62.30
2022-12-04T03:34:44.798Z,57.93
2022-12-04T03:38:12.637Z,59.10
2022-12-04T03:41:16.861Z,62.73
2022-12-04T03:44:20.807Z,63.67
2022-12-04T03:47:20.527Z,66.20
2022-12-04T03:50:33.261Z,64.37
2022-12-04T03:53:22.716Z,63.87
2022-12-04T03:56:17.587Z,62.77
2022-12-04T03:58:57.333Z,57.77
2022-12-04T04:01:37.879Z,61.27
2022-12-04T04:04:24.332Z,55.93
2022-12-04T04:07:44.520Z,61.37
2022-12-04T04:10:55.209Z,57.97
2022-12-04T04:14:22.425Z,60.53
2022-12-04T04:21:30.253Z,61.73
2022-12-04T04:24:32.525Z,60.33
2022-12-04T04:28:06.198Z,56.13
2022-12-04T04:35:04.609Z,51.57
2022-12-04T04:38:08.304Z,45.63
2022-12-04T04:54:38.482Z,50.70
2022-12-04T04:57:45.143Z,49.47
2022-12-04T05:01:03.028Z,49.97
2022-12-04T05:04:07.591Z,49.50
2022-12-04T05:10:19.849Z,55.30
2022-12-04T05:13:30.367Z,52.53
2022-12-04T05:20:06.841Z,52.20
2022-12-04T05:23:24.577Z,49.27
2022-12-04T05:26:18.563Z,51.73
2022-12-04T05:28:51.881Z,46.50
2022-12-04T05:31:21.932Z,53.97
2022-12-04T05:34:31.631Z,48.70
2022-12-04T05:37:20.288Z,50.70
2022-12-04T05:39:59.075Z,53.43
2022-12-04T05:42:26.490Z,54.90
2022-12-04T05:45:04.707Z,54.93
2022-12-04T05:51:14.338Z,54.73
2022-12-04T05:53:44.872Z,55.90
2022-12-04T05:56:47.340Z,58.87
2022-12-04T05:59:14.639Z,60.47
2022-12-04T06:02:08.531Z,53.03
2022-12-04T06:04:37.568Z,56.30
2022-12-04T06:07:49.301Z,50.70
2022-12-04T06:10:42.655Z,53.70
2022-12-04T06:13:23.449Z,53.50
2022-12-04T06:15:52.032Z,52.53
2022-12-04T06:18:21.829Z,47.87
2022-12-04T06:21:18.909Z,46.90
2022-12-04T06:23:56.426Z,51.30
2022-12-04T06:26:32.528Z,48.10
2022-12-04T06:29:03.107Z,44.77
2022-12-04T06:31:39.255Z,49.73
2022-12-04T06:34:16.282Z,53.17
2022-12-04T06:37:38.644Z,52.33
2022-12-04T06:40:29.485Z,51.03
2022-12-04T06:43:06.493Z,48.97
2022-12-04T06:45:36.569Z,49.97
2022-12-04T06:48:13.129Z,49.27
2022-12-04T06:51:12.239Z,47.77
2022-12-04T06:54:14.991Z,49.77
2022-12-04T06:56:48.949Z,49.60
2022-12-04T07:00:19.513Z,49.33
2022-12-04T07:03:12.718Z,50.53
2022-12-04T07:05:48.705Z,46.40
2022-12-04T07:08:24.321Z,47.70
2022-12-04T07:11:30.938Z,45.10
2022-12-04T07:18:50.750Z,44.53
2022-12-04T07:22:16.514Z,47.10
2022-12-04T07:25:09.658Z,43.93
2022-12-04T07:28:32.080Z,43.37
2022-12-04T07:54:14.603Z,45.47
2022-12-04T07:56:53.359Z,44.07
2022-12-04T07:59:45.407Z,37.87
2022-12-04T08:02:27.326Z,40.37
2022-12-04T08:05:21.884Z,47.43
2022-12-04T08:08:48.165Z,41.67
2022-12-04T08:11:22.666Z,40.63
2022-12-04T08:14:32.122Z,44.40
2022-12-04T08:17:05.802Z,48.03
2022-12-04T08:20:47.674Z,45.60
2022-12-04T08:26:35.287Z,39.27
2022-12-04T08:29:23.631Z,39.90
2022-12-04T08:32:04.698Z,47.87
2022-12-04T08:34:40.852Z,44.57
2022-12-04T08:37:08.142Z,39.97
2022-12-04T08:39:34.995Z,42.93
2022-12-04T08:42:42.756Z,43.80
2022-12-04T08:45:19.435Z,43.40
2022-12-04T08:47:52.063Z,40.17
2022-12-04T08:54:51.045Z,43.00
2022-12-04T08:57:32.944Z,41.17
2022-12-04T09:00:13.429Z,41.80
2022-12-04T09:02:59.934Z,41.60
2022-12-04T09:05:47.027Z,43.07
2022-12-04T09:08:39.011Z,39.33
2022-12-04T09:14:48.371Z,40.83
2022-12-04T09:17:53.000Z,39.07
2022-12-04T09:20:49.490Z,42.23
2022-12-04T09:23:49.373Z,35.60
2022-12-04T09:26:34.586Z,42.47
2022-12-04T09:29:41.063Z,36.57
2022-12-04T09:32:21.059Z,35.70
2022-12-04T09:34:54.345Z,41.57
2022-12-04T09:37:34.866Z,36.73
2022-12-04T09:40:19.020Z,36.30
2022-12-04T09:43:28.313Z,37.27
2022-12-04T09:46:10.572Z,39.63
2022-12-04T09:48:41.651Z,41.50
2022-12-04T09:51:28.073Z,42.87
2022-12-04T09:57:48.726Z,42.97
2022-12-04T10:00:26.665Z,41.73
2022-12-04T10:03:04.464Z,39.87
2022-12-04T10:06:19.796Z,40.07
2022-12-04T10:09:13.376Z,38.00
2022-12-04T10:12:35.114Z,38.40
2022-12-04T10:15:28.899Z,40.07
2022-12-04T10:18:17.835Z,42.70
2022-12-04T10:21:03.129Z,38.40
2022-12-04T10:24:21.076Z,39.23
2022-12-04T10:27:02.563Z,37.00
2022-12-04T10:29:55.221Z,38.90
2022-12-04T10:33:25.120Z,43.00
2022-12-04T10:36:18.429Z,39.07
2022-12-04T10:39:35.832Z,40.13
2022-12-04T10:43:08.703Z,51.57
2022-12-04T10:46:21.953Z,39.17
2022-12-04T10:52:48.606Z,37.63
2022-12-04T10:55:44.570Z,37.10
2022-12-04T11:10:22.742Z,33.03
2022-12-04T11:13:55.888Z,36.83
2022-12-04T11:21:44.540Z,35.60
2022-12-04T11:25:00.819Z,34.00
2022-12-04T11:27:41.227Z,29.37
2022-12-04T11:30:18.972Z,32.20
2022-12-04T11:33:02.829Z,31.60
2022-12-04T11:36:41.301Z,36.47
2022-12-04T11:40:16.405Z,36.27
2022-12-04T12:15:22.471Z,35.10
2022-12-04T12:18:34.324Z,36.67
2022-12-04T12:21:20.729Z,38.00
2022-12-04T12:24:23.629Z,37.03
2022-12-04T12:27:09.819Z,34.27
2022-12-04T12:29:55.254Z,35.60
2022-12-04T12:33:14.729Z,32.80
2022-12-04T12:36:08.648Z,36.70
2022-12-04T12:38:47.326Z,31.33
2022-12-04T12:42:15.567Z,32.70
2022-12-04T12:44:58.850Z,31.20
2022-12-04T12:51:49.597Z,35.07
2022-12-04T12:58:46.547Z,32.50
2022-12-04T13:04:55.343Z,36.37
2022-12-04T13:08:23.489Z,35.33
2022-12-04T13:11:31.322Z,36.57
2022-12-04T13:14:00.955Z,34.90
2022-12-04T13:17:47.175Z,35.37
2022-12-04T13:20:24.189Z,33.70
2022-12-04T13:53:06.086Z,38.60
2022-12-04T13:55:45.912Z,42.90
2022-12-04T13:58:54.053Z,39.83
2022-12-04T14:01:28.966Z,42.23
2022-12-04T14:03:57.944Z,39.07
2022-12-04T14:06:44.215Z,35.27
2022-12-04T14:10:12.682Z,40.83
2022-12-04T14:13:05.519Z,37.87
2022-12-04T14:15:37.268Z,39.60
2022-12-04T14:18:19.611Z,33.20
2022-12-04T14:21:02.190Z,35.50
2022-12-04T14:23:39.618Z,34.30
2022-12-04T14:26:33.111Z,34.90
2022-12-04T14:30:01.272Z,37.40
2022-12-04T14:33:18.153Z,33.00
2022-12-04T14:36:10.453Z,34.03
2022-12-04T14:38:53.113Z,39.03
2022-12-04T14:41:27.027Z,33.90
2022-12-04T14:45:02.643Z,32.97
2022-12-04T14:48:11.369Z,34.07
2022-12-04T14:50:56.966Z,35.47
2022-12-04T14:54:04.711Z,33.20
2022-12-04T15:00:28.030Z,37.77
2022-12-04T15:04:13.585Z,38.90
2022-12-04T15:07:28.669Z,34.13
2022-12-04T15:10:58.856Z,33.90
2022-12-04T15:13:45.302Z,36.07
2022-12-04T15:16:30.397Z,37.93
2022-12-04T16:02:55.668Z,33.87
2022-12-04T16:21:04.337Z,33.43
2022-12-04T16:23:52.839Z,30.47
2022-12-04T16:26:44.907Z,33.50
2022-12-04T16:29:15.337Z,32.50
2022-12-04T16:31:50.171Z,34.37
2022-12-04T16:34:24.493Z,31.43
2022-12-04T16:37:17.146Z,33.03
2022-12-04T16:40:09.321Z,34.87
2022-12-04T16:42:40.271Z,33.23
2022-12-04T16:45:37.925Z,34.53
2022-12-04T16:48:40.086Z,33.23
2022-12-04T16:51:15.991Z,35.40
2022-12-04T16:53:54.349Z,37.37
2022-12-04T16:56:25.189Z,34.00
2022-12-04T16:59:30.357Z,33.77
2022-12-04T17:02:41.197Z,33.13
2022-12-04T17:05:25.107Z,31.13
2022-12-04T17:07:56.136Z,32.13
2022-12-04T17:10:26.355Z,35.30
2022-12-04T17:13:12.383Z,35.93
2022-12-04T17:19:27.994Z,33.03
2022-12-04T17:22:55.270Z,33.87
2022-12-04T17:26:04.301Z,34.47
2022-12-04T17:28:36.669Z,31.43
2022-12-04T17:31:17.866Z,31.37
2022-12-04T17:33:54.784Z,30.93
2022-12-04T17:36:38.692Z,32.43
2022-12-04T17:39:16.470Z,29.33
2022-12-04T17:41:46.665Z,32.73
2022-12-04T17:44:38.705Z,29.87
2022-12-04T17:47:09.369Z,33.13
2022-12-04T17:49:39.854Z,31.97
2022-12-04T17:52:07.451Z,30.43
2022-12-04T17:54:35.481Z,33.10
2022-12-04T17:57:02.983Z,32.33
2022-12-04T17:59:33.254Z,29.80
2022-12-04T18:02:03.326Z,36.53
2022-12-04T18:04:36.785Z,31.00
2022-12-04T18:07:12.138Z,28.67
2022-12-04T18:09:49.501Z,26.60
2022-12-04T18:16:22.899Z,28.80
2022-12-04T18:18:55.473Z,24.73
2022-12-04T18:21:23.032Z,26.27
2022-12-04T18:23:50.959Z,26.73
2022-12-04T18:26:24.360Z,26.13
2022-12-04T18:28:53.282Z,26.47
2022-12-04T18:31:22.912Z,28.00
2022-12-04T18:33:50.419Z,25.83
2022-12-04T18:36:22.782Z,23.23
2022-12-04T18:38:58.438Z,27.20
2022-12-04T18:41:29.381Z,28.40
2022-12-04T18:44:06.500Z,23.37
2022-12-04T18:46:35.769Z,26.80
2022-12-04T18:52:42.725Z,28.47
2022-12-04T18:55:12.891Z,28.47
2022-12-04T18:57:45.813Z,28.60
2022-12-04T19:00:13.476Z,27.80
2022-12-04T19:02:41.212Z,27.33
2022-12-04T19:05:08.506Z,26.63
2022-12-04T19:07:35.759Z,24.27
2022-12-04T19:10:21.296Z,27.93
2022-12-04T19:12:48.626Z,25.70
2022-12-04T19:15:18.705Z,30.23
2022-12-04T19:17:50.668Z,30.07
2022-12-04T19:20:21.454Z,27.00
2022-12-04T19:22:51.355Z,26.43
2022-12-04T19:25:18.330Z,29.93
2022-12-04T19:27:45.372Z,30.00
2022-12-04T19:30:13.214Z,30.07
2022-12-04T19:32:40.437Z,30.53
2022-12-04T19:35:13.177Z,30.23
2022-12-04T19:37:42.211Z,31.30
2022-12-04T19:40:10.554Z,31.60
2022-12-04T19:43:09.794Z,30.27
2022-12-04T19:45:39.887Z,26.17
2022-12-04T19:49:21.100Z,29.17
2022-12-04T19:51:49.456Z,26.17
2022-12-04T19:54:18.482Z,27.77
2022-12-04T19:56:51.111Z,29.27
2022-12-04T19:59:24.303Z,29.50
2022-12-04T20:01:51.890Z,28.83
2022-12-04T20:04:19.502Z,28.13
2022-12-04T20:06:49.385Z,30.87
2022-12-04T20:09:20.767Z,31.73
2022-12-04T20:12:01.508Z,30.33
2022-12-04T20:14:31.614Z,29.33
2022-12-04T20:17:11.961Z,28.93
2022-12-04T20:19:39.655Z,29.10
2022-12-04T20:22:09.263Z,31.00
2022-12-04T20:24:43.155Z,29.27
2022-12-04T20:28:02.074Z,34.03
2022-12-04T20:30:34.789Z,31.60
2022-12-04T20:33:01.920Z,29.40
2022-12-04T20:35:29.138Z,28.13
2022-12-04T20:37:56.560Z,29.27
2022-12-04T20:40:25.006Z,31.20
2022-12-04T20:43:04.443Z,28.53
2022-12-04T20:45:36.772Z,32.07
2022-12-04T20:48:07.179Z,29.90
2022-12-04T20:50:34.988Z,31.03
2022-12-04T20:53:15.245Z,31.23
2022-12-04T20:55:57.243Z,29.07
2022-12-04T20:58:24.836Z,30.40
2022-12-04T21:00:55.391Z,27.20
2022-12-04T21:03:22.403Z,27.17
2022-12-04T21:05:53.201Z,28.33
2022-12-04T21:08:43.127Z,26.80
2022-12-04T21:11:18.211Z,26.23
2022-12-04T21:14:21.928Z,27.43
2022-12-04T21:16:52.865Z,25.47
2022-12-04T21:19:21.961Z,26.53
2022-12-04T21:21:49.978Z,27.40
2022-12-04T21:24:26.821Z,29.87
2022-12-04T21:27:07.022Z,27.50
2022-12-04T21:29:43.353Z,24.83
2022-12-04T21:32:11.271Z,28.30
2022-12-04T21:34:57.297Z,26.77
2022-12-04T21:37:43.341Z,26.70
2022-12-04T21:40:25.856Z,25.87
2022-12-04T21:43:13.579Z,27.97
2022-12-04T21:46:13.543Z,25.63
2022-12-04T21:49:08.649Z,28.13
2022-12-04T21:51:58.413Z,28.60
2022-12-04T21:54:37.991Z,27.13
2022-12-04T21:57:11.801Z,25.23
2022-12-04T21:59:54.187Z,28.27
2022-12-04T22:02:44.554Z,27.13
2022-12-04T22:06:13.581Z,25.50
2022-12-04T22:09:33.083Z,23.80
2022-12-04T22:12:41.158Z,23.83
2022-12-04T22:18:46.549Z,22.70
2022-12-04T22:21:27.898Z,24.47
2022-12-04T22:24:04.755Z,23.23
2022-12-04T22:26:50.011Z,20.43
2022-12-04T22:29:59.235Z,22.13
2022-12-04T22:32:32.418Z,23.90
2022-12-04T22:35:08.935Z,24.00
2022-12-04T22:37:41.104Z,22.47
2022-12-04T22:40:24.738Z,21.77
2022-12-04T22:44:13.962Z,21.60
2022-12-04T22:46:48.862Z,22.60
2022-12-04T22:49:16.358Z,25.67
2022-12-04T22:51:43.718Z,23.40
2022-12-04T22:54:18.753Z,24.43
2022-12-04T22:56:48.813Z,22.40
2022-12-04T22:59:22.703Z,22.23
2022-12-04T23:01:52.553Z,21.80
2022-12-04T23:04:22.337Z,22.73
2022-12-04T23:06:55.651Z,23.90
2022-12-04T23:09:27.964Z,24.73
2022-12-04T23:12:06.792Z,23.33
2022-12-04T23:17:18.338Z,25.30
2022-12-04T23:20:39.033Z,26.97
2022-12-04T23:23:31.243Z,24.27
2022-12-04T23:26:10.670Z,26.83
2022-12-04T23:28:38.962Z,25.23
2022-12-04T23:32:20.135Z,24.93
2022-12-04T23:34:53.252Z,25.70
2022-12-04T23:37:37.467Z,27.47
2022-12-04T23:40:23.370Z,26.97
2022-12-04T23:43:17.422Z,26.63
2022-12-04T23:45:45.096Z,25.53
2022-12-04T23:48:12.881Z,31.23
2022-12-04T23:50:45.363Z,23.40
2022-12-04T23:53:24.974Z,24.93
2022-12-04T23:56:26.921Z,25.50
2022-12-04T23:59:03.824Z,24.57
